Time;durP1;ratioP1;P1;durP2;ratioP2;P2;SDS_P1;SDS_P2;PMS_P1;PMS_P2;Temp;Humidity;BMP_temperature;BMP_pressure;BME280_temperature;BME280_humidity;BME280_pressure;Samples;Min_cycle;Max_cycle;Signal;HPM_P1;HPM_P2
2023/09/18 00:00:50;;;;;;;19.17;8.27;;;;;;;;;;4921332;29;20044;-67
2023/09/18 00:03:17;;;;;;;16.00;8.23;;;;;;;;;;4907910;29;20058;-67
2023/09/18 00:05:44;;;;;;;14.50;8.27;;;;;;;;;;4913817;28;20059;-67
2023/09/18 00:08:12;;;;;;;16.42;8.05;;;;;;;;;;4919468;29;20180;-67
2023/09/18 00:10:39;;;;;;;15.35;8.13;;;;;;;;;;4937726;28;20066;-67
2023/09/18 00:13:05;;;;;;;15.43;7.40;;;;;;;;;;4923234;28;20162;-66
2023/09/18 00:15:32;;;;;;;14.38;7.93;;;;;;;;;;4926787;29;20120;-67
2023/09/18 00:17:59;;;;;;;15.23;7.53;;;;;;;;;;4919158;28;20146;-67
2023/09/18 00:20:26;;;;;;;16.77;7.78;;;;;;;;;;4919699;29;20130;-66
2023/09/18 00:22:53;;;;;;;14.63;7.87;;;;;;;;;;4922763;28;20122;-66
2023/09/18 00:25:21;;;;;;;25.38;8.77;;;;;;;;;;4939838;28;20405;-67
2023/09/18 00:27:48;;;;;;;13.55;7.65;;;;;;;;;;4932989;28;20074;-67
2023/09/18 00:30:15;;;;;;;19.70;8.55;;;;;;;;;;4939323;28;20099;-67
2023/09/18 00:32:41;;;;;;;17.17;8.82;;;;;;;;;;4923028;29;20138;-67
2023/09/18 00:35:08;;;;;;;16.05;8.00;;;;;;;;;;4920505;29;20060;-67
2023/09/18 00:37:36;;;;;;;23.90;8.32;;;;;;;;;;4918198;29;20144;-67
2023/09/18 00:40:04;;;;;;;21.40;9.32;;;;;;;;;;4919111;28;20051;-67
2023/09/18 00:42:33;;;;;;;15.38;8.45;;;;;;;;;;4917373;29;20094;-67
2023/09/18 00:44:59;;;;;;;18.25;8.18;;;;;;;;;;4919675;29;20056;-66
2023/09/18 00:47:26;;;;;;;14.75;8.63;;;;;;;;;;4902186;29;20094;-67
2023/09/18 00:49:53;;;;;;;15.50;7.72;;;;;;;;;;4896544;29;20091;-67
2023/09/18 00:52:21;;;;;;;18.95;8.15;;;;;;;;;;4902317;29;20059;-66
2023/09/18 00:54:49;;;;;;;14.02;7.28;;;;;;;;;;4902228;29;20063;-67
2023/09/18 00:57:15;;;;;;;17.25;7.65;;;;;;;;;;4911048;29;20126;-67
2023/09/18 00:59:44;;;;;;;16.10;7.95;;;;;;;;;;4916026;29;20062;-66
2023/09/18 01:02:11;;;;;;;15.20;7.38;;;;;;;;;;4923127;29;20122;-67
2023/09/18 01:04:44;;;;;;;16.63;7.55;;;;;;;;;;4936457;28;20110;-67
2023/09/18 01:07:11;;;;;;;13.32;7.53;;;;;;;;;;4923021;28;20094;-66
2023/09/18 01:09:37;;;;;;;13.77;7.30;;;;;;;;;;4916611;29;20056;-67
2023/09/18 01:12:12;;;;;;;17.67;7.80;;;;;;;;;;4938765;29;21009;-67
2023/09/18 01:14:43;;;;;;;17.58;8.18;;;;;;;;;;4928835;28;20066;-66
2023/09/18 01:17:13;;;;;;;16.25;8.13;;;;;;;;;;4959123;28;20047;-66
2023/09/18 01:19:44;;;;;;;13.63;7.70;;;;;;;;;;4939493;28;20059;-65
2023/09/18 01:22:11;;;;;;;14.48;7.65;;;;;;;;;;4941997;29;20094;-68
2023/09/18 01:24:41;;;;;;;14.70;7.97;;;;;;;;;;4914020;29;20166;-66
2023/09/18 01:27:09;;;;;;;16.67;7.78;;;;;;;;;;4941017;28;20953;-66
2023/09/18 01:29:36;;;;;;;17.77;8.20;;;;;;;;;;4940972;28;20053;-68
2023/09/18 01:32:03;;;;;;;14.48;7.90;;;;;;;;;;4933715;28;20090;-69
2023/09/18 01:34:35;;;;;;;18.85;8.27;;;;;;;;;;4915272;29;20142;-68
2023/09/18 01:37:04;;;;;;;17.45;7.80;;;;;;;;;;4922645;29;20071;-66
2023/09/18 01:39:32;;;;;;;16.05;7.28;;;;;;;;;;4921144;29;20059;-66
2023/09/18 01:42:02;;;;;;;21.42;7.55;;;;;;;;;;4920181;29;20079;-69
2023/09/18 01:44:29;;;;;;;14.27;7.38;;;;;;;;;;4911718;29;20059;-66
2023/09/18 01:46:58;;;;;;;18.27;8.18;;;;;;;;;;4922364;29;20056;-66
2023/09/18 01:49:29;;;;;;;14.77;7.75;;;;;;;;;;4938012;28;20079;-67
2023/09/18 01:51:56;;;;;;;17.88;8.15;;;;;;;;;;4917114;28;20122;-69
2023/09/18 01:54:23;;;;;;;19.42;7.88;;;;;;;;;;4918480;29;20051;-66
2023/09/18 01:56:49;;;;;;;18.67;7.35;;;;;;;;;;4937506;29;20091;-66
2023/09/18 01:59:18;;;;;;;16.90;8.98;;;;;;;;;;4922480;29;20061;-67
2023/09/18 02:01:44;;;;;;;16.95;6.90;;;;;;;;;;4919692;29;20044;-66
2023/09/18 02:04:11;;;;;;;14.68;8.02;;;;;;;;;;4884574;29;20162;-66
2023/09/18 02:06:38;;;;;;;16.90;8.73;;;;;;;;;;4922780;29;20134;-67
2023/09/18 02:09:04;;;;;;;15.63;8.00;;;;;;;;;;4910511;29;20067;-66
2023/09/18 02:11:31;;;;;;;15.02;7.80;;;;;;;;;;4903541;29;20062;-68
2023/09/18 02:13:58;;;;;;;18.85;9.18;;;;;;;;;;4917430;29;20063;-67
2023/09/18 02:16:26;;;;;;;15.65;8.73;;;;;;;;;;4928216;29;20051;-67
2023/09/18 02:18:55;;;;;;;19.38;8.23;;;;;;;;;;4916236;28;20074;-66
2023/09/18 02:21:23;;;;;;;18.25;8.65;;;;;;;;;;4924706;29;20203;-67
2023/09/18 02:23:50;;;;;;;16.98;8.02;;;;;;;;;;4917716;29;20059;-66
2023/09/18 02:26:17;;;;;;;15.52;7.40;;;;;;;;;;4925109;29;20063;-66
2023/09/18 02:28:44;;;;;;;21.15;7.75;;;;;;;;;;4917987;28;20091;-66
2023/09/18 02:31:10;;;;;;;17.05;8.30;;;;;;;;;;4922710;29;20056;-69
2023/09/18 02:33:39;;;;;;;20.80;9.38;;;;;;;;;;4927691;29;20052;-67
2023/09/18 02:36:06;;;;;;;;;;;;;;;;;;4876272;29;20087;-67
2023/09/18 02:38:33;;;;;;;14.52;7.38;;;;;;;;;;4937865;29;19927;-67
2023/09/18 02:40:59;;;;;;;17.95;8.68;;;;;;;;;;4919496;29;20102;-68
2023/09/18 02:43:26;;;;;;;16.92;8.10;;;;;;;;;;4921923;29;20127;-66
2023/09/18 02:45:53;;;;;;;14.05;7.90;;;;;;;;;;4916125;29;20126;-67
2023/09/18 02:48:20;;;;;;;18.58;8.32;;;;;;;;;;4920984;29;20048;-66
2023/09/18 02:50:48;;;;;;;17.67;7.88;;;;;;;;;;4919087;29;20047;-66
2023/09/18 02:53:19;;;;;;;17.25;8.65;;;;;;;;;;4923840;28;20150;-67
2023/09/18 02:55:45;;;;;;;14.63;7.72;;;;;;;;;;4919845;29;20064;-66
2023/09/18 02:58:12;;;;;;;15.55;7.85;;;;;;;;;;4923290;29;20053;-67
2023/09/18 03:00:43;;;;;;;14.15;7.78;;;;;;;;;;4918871;29;20086;-66
2023/09/18 03:03:09;;;;;;;14.95;8.02;;;;;;;;;;4919193;29;20059;-67
2023/09/18 03:05:36;;;;;;;16.42;8.13;;;;;;;;;;4947821;28;20130;-67
2023/09/18 03:08:04;;;;;;;13.15;7.13;;;;;;;;;;4940186;28;20086;-67
2023/09/18 03:10:37;;;;;;;16.05;7.45;;;;;;;;;;4941338;28;20051;-66
2023/09/18 03:13:04;;;;;;;14.05;7.68;;;;;;;;;;4928078;28;20098;-66
2023/09/18 03:15:31;;;;;;;14.30;7.07;;;;;;;;;;4916842;28;20060;-66
2023/09/18 03:17:58;;;;;;;16.30;7.53;;;;;;;;;;4922633;29;20158;-66
2023/09/18 03:20:26;;;;;;;14.25;6.38;;;;;;;;;;4928192;29;20048;-66
2023/09/18 03:22:54;;;;;;;12.43;7.15;;;;;;;;;;4918750;28;20064;-66
2023/09/18 03:25:23;;;;;;;13.02;6.90;;;;;;;;;;4931493;28;20062;-67
2023/09/18 03:27:50;;;;;;;15.90;6.18;;;;;;;;;;4922918;28;20063;-68
2023/09/18 03:30:17;;;;;;;17.47;6.97;;;;;;;;;;4936661;28;20047;-67
2023/09/18 03:32:43;;;;;;;13.20;6.28;;;;;;;;;;4916224;28;20082;-65
2023/09/18 03:35:17;;;;;;;12.57;6.22;;;;;;;;;;4915282;29;20056;-65
2023/09/18 03:37:44;;;;;;;18.58;6.90;;;;;;;;;;4921248;29;20055;-67
2023/09/18 03:40:11;;;;;;;10.70;5.95;;;;;;;;;;4923004;29;20060;-66
2023/09/18 03:42:39;;;;;;;17.42;7.25;;;;;;;;;;4920375;29;20105;-68
2023/09/18 03:45:07;;;;;;;18.10;8.05;;;;;;;;;;4917295;28;21133;-66
2023/09/18 03:47:35;;;;;;;14.48;8.10;;;;;;;;;;4922075;29;20159;-66
2023/09/18 03:50:01;;;;;;;18.20;7.97;;;;;;;;;;4921336;29;20155;-67
2023/09/18 03:52:28;;;;;;;21.80;8.43;;;;;;;;;;4920497;29;20079;-66
2023/09/18 03:54:55;;;;;;;17.30;7.85;;;;;;;;;;4916837;28;20060;-67
2023/09/18 03:57:21;;;;;;;15.57;8.18;;;;;;;;;;4937491;29;20087;-67
2023/09/18 03:59:49;;;;;;;17.10;7.88;;;;;;;;;;4922966;29;20098;-67
2023/09/18 04:02:16;;;;;;;14.05;7.45;;;;;;;;;;4921128;28;20064;-66
2023/09/18 04:04:43;;;;;;;14.65;8.15;;;;;;;;;;4910241;28;20143;-66
2023/09/18 04:07:10;;;;;;;15.95;9.18;;;;;;;;;;4922041;28;20060;-67
2023/09/18 04:09:37;;;;;;;20.98;9.23;;;;;;;;;;4920547;29;20119;-67
2023/09/18 04:12:05;;;;;;;13.68;8.00;;;;;;;;;;4919111;29;20052;-67
2023/09/18 04:14:32;;;;;;;;;;;;;;;;;;4909740;29;20066;-66
2023/09/18 04:17:00;;;;;;;12.65;7.53;;;;;;;;;;4895554;28;19955;-66
2023/09/18 04:19:27;;;;;;;14.55;7.50;;;;;;;;;;4916815;29;20192;-66
2023/09/18 04:21:55;;;;;;;22.30;8.23;;;;;;;;;;4903247;29;20124;-66
2023/09/18 04:24:23;;;;;;;15.55;7.85;;;;;;;;;;4899873;28;20118;-66
2023/09/18 04:26:51;;;;;;;18.75;7.68;;;;;;;;;;4918832;28;20056;-66
2023/09/18 04:29:17;;;;;;;18.75;8.07;;;;;;;;;;4925153;29;20052;-67
2023/09/18 04:31:44;;;;;;;13.68;7.10;;;;;;;;;;4920062;28;20087;-67
2023/09/18 04:34:13;;;;;;;13.57;6.45;;;;;;;;;;4919393;29;22233;-66
2023/09/18 04:36:39;;;;;;;19.65;9.50;;;;;;;;;;4920928;29;20083;-67
2023/09/18 04:39:07;;;;;;;32.10;19.05;;;;;;;;;;4920206;28;20155;-66
2023/09/18 04:41:34;;;;;;;22.40;10.15;;;;;;;;;;4923423;29;20063;-66
2023/09/18 04:44:00;;;;;;;14.63;7.00;;;;;;;;;;4903971;28;20060;-66
2023/09/18 04:46:27;;;;;;;23.23;7.65;;;;;;;;;;4922368;29;20107;-66
2023/09/18 04:48:53;;;;;;;16.67;7.78;;;;;;;;;;4918097;28;20086;-66
2023/09/18 04:51:21;;;;;;;18.02;8.73;;;;;;;;;;4924064;28;20139;-66
2023/09/18 04:53:48;;;;;;;17.60;7.95;;;;;;;;;;4919707;28;20055;-68
2023/09/18 04:56:14;;;;;;;15.55;7.25;;;;;;;;;;4902831;28;20060;-68
2023/09/18 04:58:41;;;;;;;18.27;6.43;;;;;;;;;;4917029;29;20061;-67
2023/09/18 05:01:08;;;;;;;18.20;8.68;;;;;;;;;;4899902;28;20056;-68
2023/09/18 05:03:35;;;;;;;17.33;6.78;;;;;;;;;;4902585;29;20084;-68
2023/09/18 05:06:02;;;;;;;17.70;6.40;;;;;;;;;;4908508;28;20079;-69
2023/09/18 05:08:31;;;;;;;12.85;5.65;;;;;;;;;;4922265;28;20056;-68
2023/09/18 05:10:58;;;;;;;14.00;5.45;;;;;;;;;;4916400;28;20279;-68
2023/09/18 05:13:24;;;;;;;16.88;6.25;;;;;;;;;;4922780;29;20154;-68
2023/09/18 05:15:51;;;;;;;9.98;5.40;;;;;;;;;;4904271;29;20334;-67
2023/09/18 05:18:18;;;;;;;10.45;5.50;;;;;;;;;;4936030;28;20063;-68
2023/09/18 05:20:44;;;;;;;16.25;6.05;;;;;;;;;;4919379;29;20201;-68
2023/09/18 05:23:11;;;;;;;18.10;6.20;;;;;;;;;;4916031;28;20237;-68
2023/09/18 05:25:41;;;;;;;12.57;6.22;;;;;;;;;;4917911;28;20138;-69
2023/09/18 05:28:08;;;;;;;20.70;10.27;;;;;;;;;;4937775;28;20131;-67
2023/09/18 05:30:38;;;;;;;15.45;8.15;;;;;;;;;;4921815;29;20055;-69
2023/09/18 05:33:07;;;;;;;12.35;6.03;;;;;;;;;;4921362;28;20154;-68
2023/09/18 05:35:34;;;;;;;11.10;6.22;;;;;;;;;;4918161;28;20130;-68
2023/09/18 05:38:01;;;;;;;10.90;5.55;;;;;;;;;;4921057;29;20150;-68
2023/09/18 05:40:27;;;;;;;11.18;5.57;;;;;;;;;;4938487;29;20154;-67
2023/09/18 05:42:57;;;;;;;12.02;6.32;;;;;;;;;;4921467;29;20134;-68
2023/09/18 05:45:24;;;;;;;13.48;5.80;;;;;;;;;;4919331;29;20126;-69
2023/09/18 05:47:53;;;;;;;11.35;5.72;;;;;;;;;;4923288;29;20123;-66
2023/09/18 05:50:19;;;;;;;10.52;5.18;;;;;;;;;;4920567;29;20063;-68
2023/09/18 05:52:47;;;;;;;13.32;6.25;;;;;;;;;;4918958;28;20063;-67
2023/09/18 05:55:15;;;;;;;14.60;5.60;;;;;;;;;;4919128;29;20087;-68
2023/09/18 05:57:42;;;;;;;12.88;5.53;;;;;;;;;;4936966;29;20229;-69
2023/09/18 06:00:13;;;;;;;12.77;5.65;;;;;;;;;;4925279;29;20063;-69
2023/09/18 06:02:39;;;;;;;12.30;5.45;;;;;;;;;;4901559;29;20209;-68
2023/09/18 06:05:08;;;;;;;10.93;5.50;;;;;;;;;;4905689;29;20064;-68
2023/09/18 06:07:35;;;;;;;11.23;5.72;;;;;;;;;;4926737;29;20079;-68
2023/09/18 06:10:01;;;;;;;14.25;5.63;;;;;;;;;;4922239;29;20150;-67
2023/09/18 06:12:28;;;;;;;16.80;5.53;;;;;;;;;;4921944;29;20162;-69
2023/09/18 06:14:55;;;;;;;12.38;5.50;;;;;;;;;;4911837;29;20138;-68
2023/09/18 06:17:25;;;;;;;15.30;5.70;;;;;;;;;;4926670;29;20056;-67
2023/09/18 06:19:52;;;;;;;15.18;5.22;;;;;;;;;;4924586;29;20107;-66
2023/09/18 06:22:18;;;;;;;11.15;5.57;;;;;;;;;;4924589;28;20066;-66
2023/09/18 06:24:45;;;;;;;20.08;6.35;;;;;;;;;;4913319;28;20110;-67
2023/09/18 06:27:12;;;;;;;14.27;5.70;;;;;;;;;;4911626;29;20056;-67
2023/09/18 06:29:39;;;;;;;14.35;5.80;;;;;;;;;;4904338;29;20060;-66
2023/09/18 06:32:06;;;;;;;12.13;5.63;;;;;;;;;;4904278;29;20060;-67
2023/09/18 06:34:35;;;;;;;12.80;5.53;;;;;;;;;;4901031;29;20060;-67
2023/09/18 06:37:03;;;;;;;14.85;6.25;;;;;;;;;;4932541;28;20055;-65
2023/09/18 06:39:32;;;;;;;16.40;5.90;;;;;;;;;;4920264;29;20059;-67
2023/09/18 06:41:59;;;;;;;14.55;6.80;;;;;;;;;;4937136;29;20060;-67
2023/09/18 06:44:25;;;;;;;14.57;6.35;;;;;;;;;;4937042;28;20143;-67
2023/09/18 06:46:53;;;;;;;13.52;5.70;;;;;;;;;;4915776;29;20064;-67
2023/09/18 06:49:20;;;;;;;10.70;4.63;;;;;;;;;;4938504;29;20067;-67
2023/09/18 06:51:48;;;;;;;10.65;4.60;;;;;;;;;;4937102;29;20063;-67
2023/09/18 06:54:15;;;;;;;13.90;5.13;;;;;;;;;;4916708;29;20072;-68
2023/09/18 06:56:44;;;;;;;14.60;4.95;;;;;;;;;;4919923;29;20055;-69
2023/09/18 06:59:11;;;;;;;9.90;4.82;;;;;;;;;;4919208;29;20062;-67
2023/09/18 07:01:38;;;;;;;12.38;4.68;;;;;;;;;;4906416;29;20052;-67
2023/09/18 07:04:06;;;;;;;11.27;4.10;;;;;;;;;;4934594;28;20070;-67
2023/09/18 07:06:34;;;;;;;8.80;4.38;;;;;;;;;;4923002;29;20052;-67
2023/09/18 07:09:04;;;;;;;;;;;;;;;;;;4913380;29;20159;-67
2023/09/18 07:11:31;;;;;;;13.25;4.38;;;;;;;;;;4919262;29;19974;-67
2023/09/18 07:13:57;;;;;;;8.57;3.90;;;;;;;;;;4917581;29;20107;-66
2023/09/18 07:16:24;;;;;;;8.75;3.63;;;;;;;;;;4937084;28;20171;-66
2023/09/18 07:18:51;;;;;;;10.07;4.72;;;;;;;;;;4915758;29;20055;-67
2023/09/18 07:21:18;;;;;;;8.32;3.83;;;;;;;;;;4919870;29;20090;-67
2023/09/18 07:23:45;;;;;;;9.68;3.65;;;;;;;;;;4920271;29;20107;-66
2023/09/18 07:26:13;;;;;;;7.30;3.60;;;;;;;;;;4898875;29;20064;-66
2023/09/18 07:28:41;;;;;;;7.55;3.90;;;;;;;;;;4897916;29;20048;-68
2023/09/18 07:31:09;;;;;;;6.80;3.35;;;;;;;;;;4918552;29;20088;-65
2023/09/18 07:33:36;;;;;;;8.55;3.40;;;;;;;;;;4900751;29;20060;-67
2023/09/18 07:36:03;;;;;;;5.88;2.67;;;;;;;;;;4890266;29;20073;-67
2023/09/18 07:38:30;;;;;;;9.85;4.13;;;;;;;;;;4903432;29;20087;-68
2023/09/18 07:40:57;;;;;;;10.75;3.58;;;;;;;;;;4900465;29;20052;-69
2023/09/18 07:43:25;;;;;;;9.93;4.10;;;;;;;;;;4900491;29;20147;-67
2023/09/18 07:45:52;;;;;;;;;;;;;;;;;;4913292;29;20056;-67
2023/09/18 07:48:19;;;;;;;7.13;3.08;;;;;;;;;;4940582;29;19926;-65
2023/09/18 07:50:49;;;;;;;9.98;3.00;;;;;;;;;;4915404;28;20087;-66
2023/09/18 07:53:15;;;;;;;8.95;3.58;;;;;;;;;;4929913;29;20148;-67
2023/09/18 07:55:42;;;;;;;7.10;3.20;;;;;;;;;;4930695;29;20203;-67
2023/09/18 07:58:09;;;;;;;9.18;3.88;;;;;;;;;;4923798;29;20150;-67
2023/09/18 08:00:37;;;;;;;8.52;3.13;;;;;;;;;;4919026;29;20060;-67
2023/09/18 08:03:04;;;;;;;11.63;3.28;;;;;;;;;;4914197;29;20055;-68
2023/09/18 08:05:31;;;;;;;7.38;3.55;;;;;;;;;;4911140;29;20086;-68
2023/09/18 08:07:59;;;;;;;8.40;3.80;;;;;;;;;;4901865;29;20096;-67
2023/09/18 08:10:26;;;;;;;11.20;6.30;;;;;;;;;;4902750;29;20086;-66
2023/09/18 08:12:53;;;;;;;8.77;3.35;;;;;;;;;;4914159;29;20059;-68
2023/09/18 08:15:21;;;;;;;12.75;3.60;;;;;;;;;;4899359;29;20055;-69
2023/09/18 08:17:49;;;;;;;7.50;3.40;;;;;;;;;;4924008;29;20071;-69
2023/09/18 08:20:16;;;;;;;8.20;3.25;;;;;;;;;;4919373;29;20067;-68
2023/09/18 08:22:45;;;;;;;5.95;3.08;;;;;;;;;;4921325;29;20052;-67
2023/09/18 08:25:14;;;;;;;8.07;3.05;;;;;;;;;;4905979;29;20055;-68
2023/09/18 08:27:43;;;;;;;4.90;2.53;;;;;;;;;;4918979;28;20119;-66
2023/09/18 08:30:11;;;;;;;6.40;2.88;;;;;;;;;;4936351;28;20079;-65
2023/09/18 08:32:38;;;;;;;7.10;2.43;;;;;;;;;;4917639;29;20155;-66
2023/09/18 08:35:07;;;;;;;9.70;2.78;;;;;;;;;;4926416;28;20079;-67
2023/09/18 08:37:36;;;;;;;5.70;2.58;;;;;;;;;;4919630;29;20119;-66
2023/09/18 08:40:09;;;;;;;4.22;2.33;;;;;;;;;;4934635;29;20191;-66
2023/09/18 08:42:39;;;;;;;6.75;2.47;;;;;;;;;;4934894;28;20067;-66
2023/09/18 08:45:10;;;;;;;5.13;2.33;;;;;;;;;;4867241;29;20160;-67
2023/09/18 08:47:39;;;;;;;7.75;2.88;;;;;;;;;;4892571;29;20064;-66
2023/09/18 08:50:09;;;;;;;10.07;2.05;;;;;;;;;;4896959;29;20108;-66
2023/09/18 08:52:37;;;;;;;3.95;1.80;;;;;;;;;;4880862;29;20072;-66
2023/09/18 08:55:05;;;;;;;6.78;2.40;;;;;;;;;;4877306;29;21122;-67
2023/09/18 08:57:33;;;;;;;3.70;1.80;;;;;;;;;;4920425;29;20100;-65
2023/09/18 09:00:06;;;;;;;4.00;1.95;;;;;;;;;;4898213;29;20056;-64
2023/09/18 09:02:33;;;;;;;5.35;1.98;;;;;;;;;;4901324;28;20116;-67
2023/09/18 09:05:00;;;;;;;5.00;1.83;;;;;;;;;;4882084;28;20152;-68
2023/09/18 09:07:32;;;;;;;5.15;1.95;;;;;;;;;;4926804;29;20067;-70
2023/09/18 09:09:59;;;;;;;4.05;1.90;;;;;;;;;;4920129;29;20060;-66
2023/09/18 09:12:50;;;;;;;6.63;2.08;;;;;;;;;;4926621;29;20059;-66
2023/09/18 09:15:18;;;;;;;6.28;1.88;;;;;;;;;;4911440;29;20061;-66
2023/09/18 09:17:45;;;;;;;3.47;1.88;;;;;;;;;;4940124;29;20076;-66
2023/09/18 09:20:13;;;;;;;10.02;1.95;;;;;;;;;;4939262;29;20059;-66
2023/09/18 09:22:44;;;;;;;4.03;1.95;;;;;;;;;;4921883;28;20059;-65
2023/09/18 09:25:31;;;;;;;6.45;1.77;;;;;;;;;;4919650;29;20066;-66
2023/09/18 09:27:59;;;;;;;4.97;1.80;;;;;;;;;;4922470;29;20056;-66
2023/09/18 09:30:27;;;;;;;6.07;3.00;;;;;;;;;;4921283;29;20086;-65
2023/09/18 09:32:55;;;;;;;11.05;2.55;;;;;;;;;;4931337;28;20063;-66
2023/09/18 09:35:24;;;;;;;6.93;1.75;;;;;;;;;;4917192;29;20060;-65
2023/09/18 09:37:52;;;;;;;4.25;1.83;;;;;;;;;;4937681;28;20070;-66
2023/09/18 09:40:21;;;;;;;5.70;1.50;;;;;;;;;;4921223;29;20113;-65
2023/09/18 09:42:48;;;;;;;7.30;1.85;;;;;;;;;;4919355;29;20150;-66
2023/09/18 09:45:16;;;;;;;3.88;1.80;;;;;;;;;;4917497;28;20067;-66
2023/09/18 09:47:43;;;;;;;4.88;1.77;;;;;;;;;;4910916;29;20075;-65
2023/09/18 09:50:13;;;;;;;4.30;1.70;;;;;;;;;;4922307;29;20067;-67
2023/09/18 09:52:44;;;;;;;6.35;1.73;;;;;;;;;;4923740;28;20070;-65
2023/09/18 09:55:32;;;;;;;4.07;1.45;;;;;;;;;;4913119;29;20064;-65
2023/09/18 09:58:00;;;;;;;4.20;1.90;;;;;;;;;;4922071;28;20060;-65
2023/09/18 10:00:36;;;;;;;5.00;2.05;;;;;;;;;;4922156;29;20142;-65
2023/09/18 10:03:05;;;;;;;7.70;1.90;;;;;;;;;;4917822;29;20047;-64
2023/09/18 10:05:34;;;;;;;5.03;1.80;;;;;;;;;;4907942;29;20063;-65
2023/09/18 10:08:05;;;;;;;7.38;2.08;;;;;;;;;;4922583;29;20067;-64
2023/09/18 10:10:36;;;;;;;4.82;1.65;;;;;;;;;;4938833;29;20059;-65
2023/09/18 10:13:17;;;;;;;6.78;1.67;;;;;;;;;;4915430;28;20123;-65
2023/09/18 10:15:46;;;;;;;15.20;1.90;;;;;;;;;;4900470;29;20051;-65
2023/09/18 10:18:18;;;;;;;6.68;1.90;;;;;;;;;;4921028;29;20071;-67
2023/09/18 10:20:49;;;;;;;5.28;1.75;;;;;;;;;;4928671;28;20059;-65
2023/09/18 10:23:26;;;;;;;2.90;1.33;;;;;;;;;;4937573;29;20087;-65
2023/09/18 10:26:03;;;;;;;6.18;1.73;;;;;;;;;;4909795;29;20114;-65
2023/09/18 10:28:31;;;;;;;3.92;1.92;;;;;;;;;;4922184;29;20055;-64
2023/09/18 10:30:59;;;;;;;;;;;;;;;;;;4922153;29;20129;-65
2023/09/18 10:33:27;;;;;;;7.55;1.65;;;;;;;;;;4937445;29;19927;-67
2023/09/18 10:35:54;;;;;;;5.82;2.03;;;;;;;;;;4897286;29;20064;-66
2023/09/18 10:38:22;;;;;;;5.60;1.80;;;;;;;;;;4904516;29;20056;-64
2023/09/18 10:40:50;;;;;;;4.47;1.77;;;;;;;;;;4910003;28;20063;-64
2023/09/18 10:43:20;;;;;;;5.03;2.00;;;;;;;;;;4902760;29;20052;-65
2023/09/18 10:45:48;;;;;;;5.43;2.17;;;;;;;;;;4887271;29;20059;-65
2023/09/18 10:48:16;;;;;;;5.43;1.92;;;;;;;;;;4916772;29;20067;-66
2023/09/18 10:50:45;;;;;;;4.43;1.88;;;;;;;;;;4901573;29;20048;-65
2023/09/18 10:53:12;;;;;;;6.10;2.38;;;;;;;;;;4916915;29;20056;-66
2023/09/18 10:55:39;;;;;;;7.68;2.97;;;;;;;;;;4913072;28;20055;-65
2023/09/18 10:58:06;;;;;;;7.35;2.88;;;;;;;;;;4920202;29;20071;-65
2023/09/18 11:00:38;;;;;;;7.85;3.13;;;;;;;;;;4901244;29;20095;-65
2023/09/18 11:03:17;;;;;;;7.25;2.13;;;;;;;;;;4914777;29;20067;-65
2023/09/18 11:05:45;;;;;;;6.63;1.98;;;;;;;;;;4894486;29;20101;-65
2023/09/18 11:08:29;;;;;;;14.85;2.38;;;;;;;;;;4901314;29;20116;-65
2023/09/18 11:10:59;;;;;;;7.38;2.15;;;;;;;;;;4910370;29;20123;-65
2023/09/18 11:13:35;;;;;;;7.55;2.38;;;;;;;;;;4903191;29;20056;-64
2023/09/18 11:16:15;;;;;;;10.02;2.15;;;;;;;;;;4900526;28;20102;-65
2023/09/18 11:18:42;;;;;;;9.45;2.42;;;;;;;;;;4936669;29;20051;-65
2023/09/18 11:21:11;;;;;;;7.40;2.07;;;;;;;;;;4939155;28;20055;-65
2023/09/18 11:23:42;;;;;;;6.45;2.30;;;;;;;;;;4940522;28;20067;-65
2023/09/18 11:26:10;;;;;;;6.95;2.50;;;;;;;;;;4870618;29;20056;-65
2023/09/18 11:29:00;;;;;;;4.97;1.90;;;;;;;;;;4922996;29;20056;-67
2023/09/18 11:31:44;;;;;;;5.85;2.35;;;;;;;;;;4917933;29;20071;-65
2023/09/18 11:34:16;;;;;;;11.65;2.22;;;;;;;;;;4900281;29;20154;-65
2023/09/18 11:36:44;;;;;;;9.38;2.28;;;;;;;;;;4885213;28;20154;-64
2023/09/18 11:39:13;;;;;;;4.88;2.00;;;;;;;;;;4927614;28;20052;-66
2023/09/18 11:41:40;;;;;;;6.18;1.92;;;;;;;;;;4902978;29;20150;-65
2023/09/18 11:44:41;;;;;;;6.13;2.03;;;;;;;;;;4900517;29;20075;-65
2023/09/18 11:47:17;;;;;;;4.05;2.00;;;;;;;;;;4901309;29;20064;-64
2023/09/18 11:49:49;;;;;;;4.80;1.98;;;;;;;;;;4902570;29;20124;-65
2023/09/18 11:52:17;;;;;;;4.93;1.90;;;;;;;;;;4903452;29;20099;-65
2023/09/18 11:54:46;;;;;;;3.45;1.80;;;;;;;;;;4902741;28;20059;-66
2023/09/18 11:57:13;;;;;;;4.90;2.35;;;;;;;;;;4931400;28;20150;-64
2023/09/18 11:59:42;;;;;;;9.73;2.47;;;;;;;;;;4935709;28;20055;-64
2023/09/18 12:02:15;;;;;;;8.65;2.45;;;;;;;;;;4916784;28;20056;-66
2023/09/18 12:07:15;;;;;;;4.68;1.88;;;;;;;;;;4847151;29;20123;-66
2023/09/18 12:09:42;;;;;;;7.90;2.15;;;;;;;;;;4900889;29;20082;-65
2023/09/18 12:12:10;;;;;;;4.88;1.90;;;;;;;;;;4902213;29;20068;-65
2023/09/18 12:14:39;;;;;;;5.47;1.80;;;;;;;;;;4890690;28;20058;-67
2023/09/18 12:17:25;;;;;;;5.30;2.05;;;;;;;;;;4944773;28;20055;-66
2023/09/18 12:19:57;;;;;;;9.85;2.00;;;;;;;;;;4941159;28;20138;-66
2023/09/18 12:22:30;;;;;;;8.55;1.88;;;;;;;;;;4957367;28;20059;-65
2023/09/18 12:25:11;;;;;;;6.30;1.88;;;;;;;;;;4903162;28;20053;-65
2023/09/18 12:27:43;;;;;;;4.70;1.90;;;;;;;;;;4928112;29;20094;-65
2023/09/18 12:30:27;;;;;;;7.95;2.25;;;;;;;;;;4936732;29;20052;-67
2023/09/18 12:33:00;;;;;;;8.20;1.83;;;;;;;;;;4930577;28;20361;-66
2023/09/18 12:35:37;;;;;;;6.40;2.17;;;;;;;;;;4849734;29;20057;-66
2023/09/18 12:38:14;;;;;;;6.50;2.25;;;;;;;;;;4873123;29;20060;-66
2023/09/18 12:40:41;;;;;;;7.57;1.92;;;;;;;;;;4897788;29;20079;-65
2023/09/18 12:43:08;;;;;;;6.55;2.25;;;;;;;;;;4913534;29;20125;-66
2023/09/18 12:45:36;;;;;;;5.07;2.22;;;;;;;;;;4897771;29;20133;-67
2023/09/18 12:48:07;;;;;;;5.53;1.90;;;;;;;;;;4906609;29;20056;-67
2023/09/18 12:50:35;;;;;;;6.00;1.77;;;;;;;;;;4904532;29;20056;-66
2023/09/18 12:53:15;;;;;;;6.53;1.90;;;;;;;;;;4920439;29;20055;-65
2023/09/18 12:55:48;;;;;;;5.50;2.13;;;;;;;;;;4877521;29;20063;-65
2023/09/18 12:58:14;;;;;;;8.02;2.13;;;;;;;;;;4910520;29;20144;-66
2023/09/18 13:01:11;;;;;;;5.63;1.92;;;;;;;;;;4932657;29;20058;-65
2023/09/18 13:03:46;;;;;;;4.82;1.67;;;;;;;;;;4920240;29;20066;-66
2023/09/18 13:06:24;;;;;;;5.03;2.03;;;;;;;;;;4917886;29;20056;-68
2023/09/18 13:09:43;;;;;;;4.30;2.00;;;;;;;;;;4921930;29;20063;-65
2023/09/18 13:12:15;;;;;;;5.60;2.03;;;;;;;;;;4883292;29;20057;-67
2023/09/18 13:15:04;;;;;;;4.15;1.70;;;;;;;;;;4894431;29;20080;-65
2023/09/18 13:17:47;;;;;;;6.50;2.80;;;;;;;;;;4913630;29;20153;-67
2023/09/18 13:20:24;;;;;;;8.73;3.60;;;;;;;;;;4904461;29;20139;-67
2023/09/18 13:23:00;;;;;;;4.70;1.77;;;;;;;;;;4899911;29;20067;-67
2023/09/18 13:25:29;;;;;;;5.07;1.83;;;;;;;;;;4881705;29;20151;-65
2023/09/18 13:27:56;;;;;;;4.15;1.83;;;;;;;;;;4914315;29;20198;-64
2023/09/18 13:30:39;;;;;;;;;;;;;;;;;;;;;
2023/09/18 13:33:18;;;;;;;4.10;1.73;;;;;;;;;;4907300;29;20067;-68
2023/09/18 13:35:53;;;;;;;5.65;2.00;;;;;;;;;;4855138;29;20072;-65
2023/09/18 13:38:21;;;;;;;4.45;1.90;;;;;;;;;;4928222;28;20131;-67
2023/09/18 13:40:55;;;;;;;9.13;1.70;;;;;;;;;;4919751;28;20067;-66
2023/09/18 13:43:22;;;;;;;5.05;1.85;;;;;;;;;;4928929;29;20074;-65
2023/09/18 13:45:58;;;;;;;4.05;1.65;;;;;;;;;;4904180;29;20099;-65
2023/09/18 13:48:29;;;;;;;6.43;1.98;;;;;;;;;;4938703;28;20147;-65
2023/09/18 13:51:03;;;;;;;6.57;1.75;;;;;;;;;;4935540;29;20146;-65
2023/09/18 13:53:35;;;;;;;3.70;1.52;;;;;;;;;;4943902;29;20150;-66
2023/09/18 13:56:12;;;;;;;8.88;1.63;;;;;;;;;;4836063;29;20084;-67
2023/09/18 13:58:58;;;;;;;8.50;1.63;;;;;;;;;;4904954;29;20068;-65
2023/09/18 14:01:43;;;;;;;4.35;1.80;;;;;;;;;;4887599;29;20166;-66
2023/09/18 14:04:12;;;;;;;4.15;1.67;;;;;;;;;;4915896;29;20150;-64
2023/09/18 14:07:11;;;;;;;6.63;1.63;;;;;;;;;;4896967;28;20060;-68
2023/09/18 14:09:46;;;;;;;4.22;1.50;;;;;;;;;;4844441;29;20061;-67
2023/09/18 14:12:14;;;;;;;6.03;1.70;;;;;;;;;;4907445;29;20061;-67
2023/09/18 14:17:32;;;;;;;4.95;1.50;;;;;;;;;;4838133;29;20060;-66
2023/09/18 14:20:06;;;;;;;7.97;1.52;;;;;;;;;;4919504;28;20063;-66
2023/09/18 14:23:09;;;;;;;3.22;1.55;;;;;;;;;;4942376;29;20052;-68
2023/09/18 14:25:43;;;;;;;6.80;2.00;;;;;;;;;;4923336;29;20062;-65
2023/09/18 14:28:13;;;;;;;3.13;1.50;;;;;;;;;;4846124;29;20163;-65
2023/09/18 14:30:42;;;;;;;4.45;1.33;;;;;;;;;;4922717;29;20055;-67
2023/09/18 14:33:23;;;;;;;4.25;1.55;;;;;;;;;;4927402;29;20082;-65
2023/09/18 14:35:55;;;;;;;3.72;1.60;;;;;;;;;;4876441;29;20060;-66
2023/09/18 14:38:31;;;;;;;8.93;1.58;;;;;;;;;;4865438;29;20147;-67
2023/09/18 14:41:11;;;;;;;2.70;1.30;;;;;;;;;;4924172;29;20055;-67
2023/09/18 14:43:40;;;;;;;8.98;1.40;;;;;;;;;;4925209;29;20059;-67
2023/09/18 14:46:18;;;;;;;4.55;1.20;;;;;;;;;;4875765;29;20069;-65
2023/09/18 14:48:52;;;;;;;3.63;1.20;;;;;;;;;;4884477;29;20119;-66
2023/09/18 14:51:19;;;;;;;2.88;1.35;;;;;;;;;;4921281;29;20158;-67
2023/09/18 14:53:59;;;;;;;7.15;2.05;;;;;;;;;;4927170;28;20055;-66
2023/09/18 14:56:28;;;;;;;4.43;1.67;;;;;;;;;;4921400;29;20067;-67
2023/09/18 14:58:55;;;;;;;7.53;2.03;;;;;;;;;;4939323;29;20130;-66